Time;durP1;ratioP1;P1;durP2;ratioP2;P2;SDS_P1;SDS_P2;PMS_P1;PMS_P2;Temp;Humidity;BMP_temperature;BMP_pressure;BME280_temperature;BME280_humidity;BME280_pressure;Samples;Min_cycle;Max_cycle;Signal;HPM_P1;HPM_P2
2023/01/20 00:00:31;;;;;;;20.05;15.00;;;2.00;99.90;;;;;;2045360;29;20041;-73
2023/01/20 00:01:33;;;;;;;19.95;14.35;;;2.00;99.90;;;;;;2046849;28;20051;-73
2023/01/20 00:02:34;;;;;;;21.52;15.00;;;2.00;99.90;;;;;;2043829;29;20023;-74
2023/01/20 00:03:35;;;;;;;21.27;14.88;;;2.00;99.90;;;;;;2045615;29;20109;-74
2023/01/20 00:04:35;;;;;;;21.73;15.25;;;2.00;99.90;;;;;;2046716;28;20041;-74
2023/01/20 00:05:36;;;;;;;21.30;15.02;;;2.00;99.90;;;;;;2036931;29;20087;-75
2023/01/20 00:06:36;;;;;;;23.27;16.15;;;2.00;99.90;;;;;;2037127;29;20038;-74
2023/01/20 00:07:37;;;;;;;22.05;16.25;;;2.10;99.90;;;;;;2044253;29;20035;-74
2023/01/20 00:08:38;;;;;;;24.80;17.10;;;2.10;99.90;;;;;;2048760;28;20057;-75
2023/01/20 00:09:38;;;;;;;21.83;16.50;;;2.10;99.90;;;;;;2045965;28;20062;-75
2023/01/20 00:10:39;;;;;;;23.33;16.55;;;2.10;99.90;;;;;;2046833;28;20026;-74
2023/01/20 00:11:39;;;;;;;24.83;16.90;;;2.10;99.90;;;;;;2048519;28;20023;-75
2023/01/20 00:12:40;;;;;;;23.05;16.65;;;2.10;99.90;;;;;;2047891;28;20041;-74
2023/01/20 00:13:40;;;;;;;23.85;17.30;;;2.10;99.90;;;;;;2046997;28;20031;-75
2023/01/20 00:14:41;;;;;;;22.65;16.75;;;2.10;99.90;;;;;;2046439;28;20122;-74
2023/01/20 00:15:41;;;;;;;26.55;19.30;;;2.10;99.90;;;;;;2047103;28;20073;-74
2023/01/20 00:16:42;;;;;;;28.13;19.48;;;2.10;99.90;;;;;;2046331;28;20035;-75
2023/01/20 00:17:42;;;;;;;27.83;19.02;;;2.10;99.90;;;;;;2037428;29;20059;-74
2023/01/20 00:18:43;;;;;;;27.60;19.50;;;2.10;99.90;;;;;;2038075;29;20098;-74
2023/01/20 00:19:43;;;;;;;27.35;19.65;;;2.10;99.90;;;;;;2036980;29;20047;-73
2023/01/20 00:20:44;;;;;;;26.77;18.75;;;2.10;99.90;;;;;;2036990;29;20419;-74
2023/01/20 00:21:44;;;;;;;25.38;18.05;;;2.10;99.90;;;;;;2047530;28;20502;-73
2023/01/20 00:22:45;;;;;;;22.75;17.35;;;2.10;99.90;;;;;;2044009;28;20039;-73
2023/01/20 00:23:46;;;;;;;25.67;18.35;;;2.10;99.90;;;;;;2045911;28;20054;-74
2023/01/20 00:24:47;;;;;;;23.52;17.80;;;2.10;99.90;;;;;;2047407;28;20035;-74
2023/01/20 00:25:47;;;;;;;25.67;18.75;;;2.10;99.90;;;;;;2045490;29;20050;-73
2023/01/20 00:26:48;;;;;;;23.83;17.33;;;2.10;99.90;;;;;;2046380;28;20027;-74
2023/01/20 00:27:52;;;;;;;24.10;17.27;;;2.10;99.90;;;;;;2044133;28;20039;-74
2023/01/20 00:28:54;;;;;;;25.05;17.80;;;2.00;99.90;;;;;;2044839;29;20105;-74
2023/01/20 00:29:55;;;;;;;24.63;17.27;;;2.10;99.90;;;;;;2047369;28;20027;-74
2023/01/20 00:30:55;;;;;;;22.77;17.00;;;2.10;99.90;;;;;;2047169;28;20033;-73
2023/01/20 00:31:56;;;;;;;23.27;16.63;;;2.10;99.90;;;;;;2045391;28;20031;-75
2023/01/20 00:32:56;;;;;;;21.52;16.75;;;2.10;99.90;;;;;;2047399;28;20319;-75
2023/01/20 00:33:59;;;;;;;23.00;17.25;;;2.10;99.90;;;;;;2045750;28;20496;-75
2023/01/20 00:34:59;;;;;;;27.23;18.80;;;2.10;99.90;;;;;;2048703;28;20045;-76
2023/01/20 00:36:00;;;;;;;26.30;18.77;;;2.10;99.90;;;;;;2047327;28;20610;-74
2023/01/20 00:37:00;;;;;;;26.25;18.73;;;2.10;99.90;;;;;;2048764;28;20042;-73
2023/01/20 00:38:01;;;;;;;26.35;19.48;;;2.10;99.90;;;;;;2047525;28;20042;-74
2023/01/20 00:39:02;;;;;;;27.55;18.27;;;2.10;99.90;;;;;;2047058;28;20031;-74
2023/01/20 00:40:04;;;;;;;25.17;18.38;;;2.10;99.90;;;;;;2045431;28;20027;-74
2023/01/20 00:41:05;;;;;;;26.60;18.10;;;2.10;99.90;;;;;;2045646;29;20039;-75
2023/01/20 00:42:06;;;;;;;25.30;18.02;;;2.10;99.90;;;;;;2036326;29;20535;-74
2023/01/20 00:43:06;;;;;;;26.25;19.08;;;2.10;99.90;;;;;;2037018;29;20071;-74
2023/01/20 00:44:07;;;;;;;28.08;20.30;;;2.10;99.90;;;;;;2044494;28;20019;-75
2023/01/20 00:45:07;;;;;;;26.60;19.40;;;2.10;99.90;;;;;;2045289;28;20031;-74
2023/01/20 00:46:09;;;;;;;25.13;18.35;;;2.10;99.90;;;;;;2045937;28;20114;-74
2023/01/20 00:47:09;;;;;;;24.85;18.15;;;2.10;99.90;;;;;;2047421;28;20028;-74
2023/01/20 00:48:10;;;;;;;24.35;17.75;;;2.10;99.90;;;;;;2045481;29;20097;-74
2023/01/20 00:49:11;;;;;;;25.50;17.92;;;2.10;99.90;;;;;;2045671;29;20089;-74
2023/01/20 00:50:12;;;;;;;27.27;19.58;;;2.10;99.90;;;;;;2046294;28;20050;-73
2023/01/20 00:51:12;;;;;;;27.08;19.15;;;2.10;99.90;;;;;;2045442;28;20152;-73
2023/01/20 00:52:13;;;;;;;27.83;19.52;;;2.10;99.90;;;;;;2045814;29;20775;-73
2023/01/20 00:53:14;;;;;;;26.58;19.02;;;2.10;99.90;;;;;;2047910;28;20019;-73
2023/01/20 00:54:14;;;;;;;27.98;20.08;;;2.10;99.90;;;;;;2046114;29;20768;-74
2023/01/20 00:55:15;;;;;;;27.80;19.02;;;2.10;99.90;;;;;;2045727;28;20030;-74
2023/01/20 00:56:15;;;;;;;28.60;20.30;;;2.10;99.90;;;;;;2045837;28;20135;-74
2023/01/20 00:57:16;;;;;;;27.15;19.10;;;2.10;99.90;;;;;;2046183;28;20090;-74
2023/01/20 00:58:16;;;;;;;30.25;20.55;;;2.10;99.90;;;;;;2046151;28;20086;-73
2023/01/20 00:59:17;;;;;;;29.77;20.95;;;2.10;99.90;;;;;;2046923;28;20171;-74
2023/01/20 01:00:18;;;;;;;27.52;19.92;;;2.10;99.90;;;;;;2045073;29;20042;-76
2023/01/20 01:01:18;;;;;;;26.23;19.02;;;2.10;99.90;;;;;;2044373;29;20042;-74
2023/01/20 01:02:19;;;;;;;26.27;19.20;;;2.10;99.90;;;;;;2045797;29;20035;-74
2023/01/20 01:03:20;;;;;;;27.73;19.23;;;2.10;99.90;;;;;;2039422;29;20035;-74
2023/01/20 01:04:21;;;;;;;26.55;19.10;;;2.10;99.90;;;;;;2042828;29;20769;-74
2023/01/20 01:05:22;;;;;;;26.30;18.58;;;2.10;99.90;;;;;;2045913;29;20114;-75
2023/01/20 01:06:22;;;;;;;25.00;18.30;;;2.10;99.90;;;;;;2044608;28;20039;-75
2023/01/20 01:07:23;;;;;;;26.65;18.73;;;2.10;99.90;;;;;;2036926;29;20043;-74
2023/01/20 01:08:23;;;;;;;26.85;18.60;;;2.10;99.90;;;;;;2037199;29;20036;-74
2023/01/20 01:09:24;;;;;;;25.08;18.05;;;2.10;99.90;;;;;;2041712;29;20475;-74
2023/01/20 01:10:24;;;;;;;22.88;17.15;;;2.10;99.90;;;;;;2041378;29;20028;-74
2023/01/20 01:11:25;;;;;;;25.80;18.02;;;2.10;99.90;;;;;;2047076;28;20042;-74
2023/01/20 01:12:26;;;;;;;24.45;17.83;;;2.10;99.90;;;;;;2047609;28;20031;-75
2023/01/20 01:13:26;;;;;;;27.48;19.25;;;2.10;99.90;;;;;;2047324;28;20031;-75
2023/01/20 01:14:30;;;;;;;30.85;20.98;;;2.10;99.90;;;;;;2047397;28;20065;-74
2023/01/20 01:15:30;;;;;;;30.33;21.10;;;2.10;99.90;;;;;;2047605;28;20031;-74
2023/01/20 01:16:31;;;;;;;31.77;20.80;;;2.10;99.90;;;;;;2049386;28;20043;-75
2023/01/20 01:17:31;;;;;;;27.55;19.92;;;2.10;99.90;;;;;;2047977;28;20138;-72
2023/01/20 01:18:32;;;;;;;29.05;19.55;;;2.10;99.90;;;;;;2047232;28;20521;-75
2023/01/20 01:19:32;;;;;;;28.90;19.98;;;2.10;99.90;;;;;;2051834;28;20056;-74
2023/01/20 01:20:33;;;;;;;27.33;19.67;;;2.10;99.90;;;;;;2038058;29;20050;-74
2023/01/20 01:21:33;;;;;;;27.92;19.42;;;2.10;99.90;;;;;;2039062;29;20123;-75
2023/01/20 01:22:34;;;;;;;28.42;20.05;;;2.10;99.90;;;;;;2046492;29;20031;-74
2023/01/20 01:23:34;;;;;;;28.85;20.38;;;2.10;99.90;;;;;;2047251;29;20046;-74
2023/01/20 01:24:35;;;;;;;29.20;20.10;;;2.10;99.90;;;;;;2047783;29;20102;-75
2023/01/20 01:25:38;;;;;;;27.77;19.33;;;2.10;99.90;;;;;;2045596;29;20410;-74
2023/01/20 01:26:39;;;;;;;25.08;18.45;;;2.10;99.90;;;;;;2047225;28;20064;-75
2023/01/20 01:27:40;;;;;;;28.00;19.35;;;2.10;99.90;;;;;;2040463;29;20055;-73
2023/01/20 01:28:40;;;;;;;26.98;19.17;;;2.10;99.90;;;;;;2045458;29;20618;-74
2023/01/20 01:29:41;;;;;;;31.00;20.17;;;2.10;99.90;;;;;;2046635;28;20051;-74
2023/01/20 01:30:42;;;;;;;28.17;19.55;;;2.10;99.90;;;;;;2045650;29;20191;-74
2023/01/20 01:31:42;;;;;;;31.33;20.67;;;2.10;99.90;;;;;;2047565;29;20061;-73
2023/01/20 01:32:43;;;;;;;29.05;20.00;;;2.10;99.90;;;;;;2047500;29;20031;-74
2023/01/20 01:33:44;;;;;;;29.65;20.67;;;2.10;99.90;;;;;;2038674;29;20028;-74
2023/01/20 01:34:44;;;;;;;28.85;19.95;;;2.10;99.90;;;;;;2040029;29;20028;-74
2023/01/20 01:35:54;;;;;;;27.48;19.55;;;2.10;99.90;;;;;;2036695;29;20036;-74
2023/01/20 01:36:55;;;;;;;28.67;19.95;;;2.10;99.90;;;;;;2035417;29;20637;-74
2023/01/20 01:37:55;;;;;;;29.10;20.15;;;2.10;99.90;;;;;;2046928;29;20122;-74
2023/01/20 01:38:56;;;;;;;30.13;20.35;;;2.10;99.90;;;;;;2047117;29;20567;-75
2023/01/20 01:39:57;;;;;;;29.25;19.27;;;2.10;99.90;;;;;;2047325;29;20051;-74
2023/01/20 01:40:57;;;;;;;27.23;19.42;;;2.10;99.90;;;;;;2050095;28;20035;-74
2023/01/20 01:41:58;;;;;;;25.98;18.92;;;2.10;99.90;;;;;;2050282;28;20035;-74
2023/01/20 01:42:59;;;;;;;28.30;19.50;;;2.10;99.90;;;;;;2047190;29;20027;-74
2023/01/20 01:44:11;;;;;;;27.25;19.00;;;2.10;99.90;;;;;;2049121;28;20035;-73
2023/01/20 01:45:11;;;;;;;27.92;19.27;;;2.10;99.90;;;;;;2034047;29;20040;-73
2023/01/20 01:46:12;;;;;;;27.88;19.70;;;2.10;99.90;;;;;;2036897;29;20118;-73
2023/01/20 01:47:12;;;;;;;29.73;20.33;;;2.10;99.90;;;;;;2046462;29;20595;-74
2023/01/20 01:48:13;;;;;;;29.63;20.00;;;2.10;99.90;;;;;;2046715;29;20027;-73
2023/01/20 01:49:25;;;;;;;26.80;19.20;;;2.10;99.90;;;;;;2048853;28;20482;-74
2023/01/20 01:50:35;;;;;;;26.90;18.73;;;2.10;99.90;;;;;;2038306;28;20027;-73
2023/01/20 01:51:42;;;;;;;28.75;19.17;;;2.10;99.90;;;;;;2047086;29;20038;-73
2023/01/20 01:52:45;;;;;;;28.30;19.08;;;2.10;99.90;;;;;;2040220;29;20055;-72
2023/01/20 01:53:56;;;;;;;33.25;20.75;;;2.10;99.90;;;;;;2048606;28;20035;-66
2023/01/20 01:54:57;;;;;;;29.83;20.17;;;2.10;99.90;;;;;;2040319;29;20091;-66
2023/01/20 01:56:01;;;;;;;30.58;20.67;;;2.00;99.90;;;;;;2045156;29;20473;-66
2023/01/20 01:57:02;;;;;;;32.67;20.48;;;2.10;99.90;;;;;;2046973;29;20027;-66
2023/01/20 01:58:05;;;;;;;27.13;19.65;;;2.10;99.90;;;;;;2031096;29;20066;-66
2023/01/20 01:59:07;;;;;;;30.58;20.77;;;2.10;99.90;;;;;;2031496;29;20084;-66
2023/01/20 02:00:11;;;;;;;31.75;21.75;;;2.10;99.90;;;;;;2038499;29;20039;-66
2023/01/20 02:01:14;;;;;;;32.22;21.02;;;2.10;99.90;;;;;;2037536;29;20888;-66
2023/01/20 02:02:15;;;;;;;30.50;20.45;;;2.10;99.90;;;;;;2047416;29;20031;-66
2023/01/20 02:03:16;;;;;;;28.52;20.13;;;2.10;99.90;;;;;;2047191;29;20103;-66
2023/01/20 02:04:22;;;;;;;29.30;20.13;;;2.10;99.90;;;;;;2047449;28;20114;-66
2023/01/20 02:05:25;;;;;;;30.42;21.45;;;2.10;99.90;;;;;;2046370;29;20043;-66
2023/01/20 02:06:30;;;;;;;30.30;20.92;;;2.10;99.90;;;;;;2034305;29;20093;-66
2023/01/20 02:07:33;;;;;;;31.55;21.40;;;2.10;99.90;;;;;;2039052;29;20703;-67
2023/01/20 02:08:34;;;;;;;32.13;22.00;;;2.10;99.90;;;;;;2046636;29;20035;-66
2023/01/20 02:09:34;;;;;;;35.55;23.92;;;2.10;99.90;;;;;;2046879;29;20186;-66
2023/01/20 02:10:35;;;;;;;33.38;21.90;;;2.10;99.90;;;;;;2045001;29;20035;-67
2023/01/20 02:11:42;;;;;;;34.22;22.63;;;2.10;99.90;;;;;;2047034;28;20148;-67
2023/01/20 02:12:48;;;;;;;36.38;23.88;;;2.10;99.90;;;;;;2047100;28;20043;-67
2023/01/20 02:13:48;;;;;;;38.03;24.67;;;2.00;99.90;;;;;;2038485;29;20072;-67
2023/01/20 02:14:52;;;;;;;34.63;23.10;;;2.10;99.90;;;;;;2044774;29;20028;-67
2023/01/20 02:16:16;;;;;;;36.50;23.75;;;2.10;99.90;;;;;;2045374;29;20050;-68
2023/01/20 02:17:28;;;;;;;33.20;22.27;;;2.10;99.90;;;;;;2043015;29;20045;-66
2023/01/20 02:19:10;;;;;;;33.45;21.90;;;2.10;99.90;;;;;;2046594;29;20311;-68
2023/01/20 02:20:29;;;;;;;32.20;20.83;;;2.00;99.90;;;;;;2000344;29;20041;-67
2023/01/20 02:21:59;;;;;;;32.20;20.35;;;2.00;99.90;;;;;;2045959;29;20618;-67
2023/01/20 02:23:31;;;;;;;37.00;22.60;;;2.00;99.90;;;;;;2040984;29;20039;-67
2023/01/20 02:25:09;;;;;;;32.88;20.45;;;2.10;99.90;;;;;;2040381;29;20059;-67
2023/01/20 02:26:35;;;;;;;32.50;20.63;;;2.10;99.90;;;;;;2037555;29;20430;-67
2023/01/20 02:27:55;;;;;;;33.45;19.70;;;2.10;99.90;;;;;;2039835;29;20326;-68
2023/01/20 02:29:18;;;;;;;29.13;19.80;;;2.00;99.90;;;;;;2038289;29;20079;-66
2023/01/20 02:30:33;;;;;;;33.75;20.77;;;2.00;99.90;;;;;;2041266;28;20082;-68
2023/01/20 02:32:00;;;;;;;34.65;22.98;;;2.00;99.90;;;;;;2046140;29;20035;-68
2023/01/20 02:33:12;;;;;;;36.30;22.20;;;2.00;99.90;;;;;;2046559;29;20042;-68
2023/01/20 02:34:31;;;;;;;36.53;23.08;;;2.00;99.90;;;;;;2046774;29;20201;-68
2023/01/20 02:35:41;;;;;;;34.53;22.15;;;2.00;99.90;;;;;;2038964;29;20079;-66
2023/01/20 02:36:58;;;;;;;37.10;23.10;;;1.90;99.90;;;;;;2046931;29;20026;-67
2023/01/20 02:38:25;;;;;;;37.28;23.30;;;1.90;99.90;;;;;;2046929;29;20027;-66
2023/01/20 02:39:54;;;;;;;36.08;22.83;;;1.90;99.90;;;;;;2043664;29;20195;-65
2023/01/20 02:41:08;;;;;;;36.78;23.25;;;1.90;99.90;;;;;;2038650;29;20040;-66
2023/01/20 02:42:14;;;;;;;35.10;22.20;;;1.90;99.90;;;;;;2043823;28;20475;-65
2023/01/20 02:43:25;;;;;;;32.92;22.15;;;1.90;99.90;;;;;;2045085;29;20517;-65
2023/01/20 02:44:41;;;;;;;32.65;21.08;;;1.90;99.90;;;;;;2039270;29;20478;-66
2023/01/20 02:45:47;;;;;;;31.23;20.17;;;1.90;99.90;;;;;;2036314;29;20046;-66
2023/01/20 02:47:03;;;;;;;33.92;21.63;;;1.90;99.90;;;;;;2047037;29;20206;-66
2023/01/20 02:48:17;;;;;;;31.20;20.35;;;2.00;99.90;;;;;;2035531;29;20734;-66
2023/01/20 02:49:27;;;;;;;33.22;21.50;;;1.90;99.90;;;;;;2040202;29;20039;-66
2023/01/20 02:50:46;;;;;;;31.20;20.63;;;1.90;99.90;;;;;;2045018;29;20031;-67
2023/01/20 02:51:57;;;;;;;30.48;20.33;;;2.00;99.90;;;;;;2038260;29;20669;-67
2023/01/20 02:53:00;;;;;;;29.67;19.80;;;2.00;99.90;;;;;;2039615;29;20019;-66
2023/01/20 02:54:04;;;;;;;30.85;20.65;;;1.90;99.90;;;;;;2046566;29;20031;-66
2023/01/20 02:55:09;;;;;;;29.90;20.65;;;2.00;99.90;;;;;;2046696;29;20442;-66
2023/01/20 02:56:11;;;;;;;31.13;21.33;;;2.00;99.90;;;;;;2043196;28;20041;-66
2023/01/20 02:57:14;;;;;;;33.78;21.75;;;1.90;99.90;;;;;;2046519;29;20043;-66
2023/01/20 02:58:38;;;;;;;35.22;22.30;;;2.00;99.90;;;;;;2046443;29;20063;-67
2023/01/20 02:59:45;;;;;;;32.50;20.67;;;1.90;99.90;;;;;;2046822;29;20181;-65
2023/01/20 03:00:58;;;;;;;35.00;21.95;;;1.90;99.90;;;;;;2043487;29;20062;-68
2023/01/20 03:02:03;;;;;;;31.33;21.08;;;2.00;99.90;;;;;;2046755;28;20050;-66
2023/01/20 03:03:09;;;;;;;32.28;20.13;;;2.00;99.90;;;;;;2039151;29;20032;-66
2023/01/20 03:04:15;;;;;;;29.23;20.10;;;2.00;99.90;;;;;;2046796;29;20065;-66
2023/01/20 03:05:27;;;;;;;29.83;19.83;;;2.00;99.90;;;;;;2041163;29;20036;-67
2023/01/20 03:06:35;;;;;;;31.70;20.90;;;2.00;99.90;;;;;;2046369;29;20043;-67
2023/01/20 03:07:39;;;;;;;31.75;20.42;;;2.00;99.90;;;;;;2046570;28;20456;-66
2023/01/20 03:08:40;;;;;;;32.40;20.67;;;2.00;99.90;;;;;;2046495;28;20106;-68
2023/01/20 03:09:45;;;;;;;32.28;21.52;;;2.00;99.90;;;;;;2046435;29;20031;-66
2023/01/20 03:10:49;;;;;;;34.00;22.42;;;2.00;99.90;;;;;;2044457;28;20039;-67
2023/01/20 03:11:55;;;;;;;35.17;22.35;;;2.00;99.90;;;;;;2046129;28;20111;-67
2023/01/20 03:12:59;;;;;;;31.08;20.67;;;1.90;99.90;;;;;;2030227;29;20474;-66
2023/01/20 03:14:11;;;;;;;32.47;20.83;;;1.90;99.90;;;;;;2030277;29;20409;-65
2023/01/20 03:15:13;;;;;;;32.85;21.30;;;1.90;99.90;;;;;;2038109;29;20028;-67
2023/01/20 03:16:16;;;;;;;31.85;20.67;;;1.90;99.90;;;;;;2044450;28;20035;-67
2023/01/20 03:17:18;;;;;;;31.42;20.95;;;1.90;99.90;;;;;;2044336;29;20035;-68
2023/01/20 03:18:19;;;;;;;33.85;22.15;;;1.90;99.90;;;;;;2048432;28;20039;-67
2023/01/20 03:19:20;;;;;;;32.45;21.38;;;1.90;99.90;;;;;;2046599;28;20035;-67
2023/01/20 03:20:20;;;;;;;34.33;22.63;;;1.90;99.90;;;;;;2046044;29;20623;-67
2023/01/20 03:21:21;;;;;;;34.15;22.23;;;1.90;99.90;;;;;;2045906;29;20071;-68
2023/01/20 03:22:22;;;;;;;35.53;22.65;;;1.90;99.90;;;;;;2044956;29;20038;-68
2023/01/20 03:23:25;;;;;;;33.33;21.75;;;1.80;99.90;;;;;;2046091;29;20530;-66
2023/01/20 03:24:28;;;;;;;33.85;21.27;;;1.80;99.90;;;;;;2045912;29;20122;-67
2023/01/20 03:25:29;;;;;;;32.80;21.50;;;1.80;99.90;;;;;;2047675;28;20350;-66
2023/01/20 03:26:30;;;;;;;32.13;21.17;;;1.80;99.90;;;;;;2046775;28;20114;-68
2023/01/20 03:27:31;;;;;;;36.20;22.80;;;1.80;99.90;;;;;;2044164;29;20035;-67
2023/01/20 03:28:31;;;;;;;35.47;22.95;;;1.80;99.90;;;;;;2047639;28;20034;-67
2023/01/20 03:29:32;;;;;;;37.45;23.23;;;1.80;99.90;;;;;;2045082;29;20544;-67
2023/01/20 03:30:33;;;;;;;33.97;22.02;;;1.80;99.90;;;;;;2046141;29;20145;-67
2023/01/20 03:31:41;;;;;;;31.63;21.13;;;1.70;99.90;;;;;;2046084;28;20039;-66
2023/01/20 03:32:45;;;;;;;35.47;21.13;;;1.80;99.90;;;;;;2046826;28;20038;-68
2023/01/20 03:33:48;;;;;;;34.97;23.05;;;1.80;99.90;;;;;;2048581;28;20342;-66
2023/01/20 03:34:49;;;;;;;35.45;22.42;;;1.70;99.90;;;;;;2037916;29;20044;-67
2023/01/20 03:35:51;;;;;;;35.63;22.63;;;1.80;99.90;;;;;;2037217;29;20040;-66
2023/01/20 03:36:53;;;;;;;35.28;21.92;;;1.70;99.90;;;;;;2030778;29;20422;-66
2023/01/20 03:37:53;;;;;;;36.10;23.17;;;1.70;99.90;;;;;;2029753;29;20044;-65
2023/01/20 03:38:55;;;;;;;35.55;21.88;;;1.70;99.90;;;;;;2036821;29;20028;-67
2023/01/20 03:39:57;;;;;;;33.70;21.45;;;1.70;99.90;;;;;;2045700;29;20023;-66
2023/01/20 03:41:12;;;;;;;33.92;22.10;;;1.70;99.90;;;;;;2037397;29;20510;-67
2023/01/20 03:42:23;;;;;;;35.05;22.17;;;1.70;99.90;;;;;;2036877;29;20063;-66
2023/01/20 03:43:35;;;;;;;33.17;20.58;;;1.70;99.90;;;;;;2044879;28;20038;-66
2023/01/20 03:45:01;;;;;;;33.40;21.08;;;1.70;99.90;;;;;;2045059;29;20486;-66
2023/01/20 03:46:18;;;;;;;33.60;21.23;;;1.70;99.90;;;;;;2042251;28;20264;-66
2023/01/20 03:47:57;;;;;;;31.55;20.67;;;1.70;99.90;;;;;;2040658;28;20086;-66
2023/01/20 03:49:09;;;;;;;32.65;19.58;;;1.70;99.90;;;;;;2036962;29;20034;-66
2023/01/20 03:50:34;;;;;;;32.72;20.42;;;1.70;99.90;;;;;;2031078;29;20036;-66
2023/01/20 03:51:59;;;;;;;32.45;20.48;;;1.70;99.90;;;;;;2037935;29;20031;-66
2023/01/20 03:53:28;;;;;;;33.90;20.98;;;1.70;99.90;;;;;;2038261;29;20023;-66
2023/01/20 03:54:49;;;;;;;36.40;21.70;;;1.70;99.90;;;;;;2038186;29;20223;-68
2023/01/20 03:56:02;;;;;;;35.13;21.90;;;1.70;99.90;;;;;;2040698;29;20643;-66
2023/01/20 03:57:12;;;;;;;34.90;21.30;;;1.70;99.90;;;;;;2038898;28;20063;-68
2023/01/20 03:58:20;;;;;;;35.03;21.40;;;1.70;99.90;;;;;;2045476;29;20054;-66
2023/01/20 03:59:22;;;;;;;33.90;21.33;;;1.70;99.90;;;;;;2050333;28;20402;-67
2023/01/20 04:00:26;;;;;;;37.70;22.40;;;1.60;99.90;;;;;;2045933;28;20031;-66
2023/01/20 04:01:35;;;;;;;37.35;22.20;;;1.70;99.90;;;;;;2045706;29;20035;-68
2023/01/20 04:02:37;;;;;;;36.92;22.75;;;1.60;99.90;;;;;;2043158;28;20402;-65
2023/01/20 04:03:43;;;;;;;34.55;21.75;;;1.60;99.90;;;;;;2045799;28;20134;-68
2023/01/20 04:04:47;;;;;;;35.10;22.02;;;1.60;99.90;;;;;;2045747;29;20130;-66
2023/01/20 04:05:49;;;;;;;35.75;22.67;;;1.60;99.90;;;;;;2045739;29;20054;-66
2023/01/20 04:06:50;;;;;;;33.97;21.17;;;1.60;99.90;;;;;;2045617;29;20318;-65
2023/01/20 04:07:54;;;;;;;35.90;22.08;;;1.60;99.90;;;;;;2046017;28;20270;-66
2023/01/20 04:09:05;;;;;;;34.97;21.45;;;1.60;99.90;;;;;;2045668;29;20413;-68
2023/01/20 04:10:11;;;;;;;34.10;21.23;;;1.60;99.90;;;;;;2045572;29;20194;-68
2023/01/20 04:11:11;;;;;;;33.35;20.67;;;1.70;99.90;;;;;;2045875;29;20046;-67
2023/01/20 04:12:12;;;;;;;34.38;21.55;;;1.60;99.90;;;;;;2044406;28;20107;-66
2023/01/20 04:13:14;;;;;;;32.78;20.80;;;1.60;99.90;;;;;;2045998;29;20039;-67
2023/01/20 04:14:14;;;;;;;33.60;21.95;;;1.60;99.90;;;;;;2045873;28;20046;-67
2023/01/20 04:15:16;;;;;;;36.42;21.98;;;1.60;99.90;;;;;;2045318;29;20556;-67
2023/01/20 04:16:18;;;;;;;35.33;21.58;;;1.60;99.90;;;;;;2037083;29;20047;-67
2023/01/20 04:17:19;;;;;;;35.10;21.77;;;1.60;99.90;;;;;;2035934;29;20043;-67
2023/01/20 04:18:22;;;;;;;32.08;20.90;;;1.60;99.90;;;;;;2045077;29;20047;-66
2023/01/20 04:19:24;;;;;;;36.97;22.27;;;1.60;99.90;;;;;;2048471;28;20109;-67
2023/01/20 04:20:26;;;;;;;39.42;24.20;;;1.60;99.90;;;;;;2046066;28;20550;-67
2023/01/20 04:21:42;;;;;;;37.40;23.13;;;1.60;99.90;;;;;;2045629;29;20475;-68
2023/01/20 04:22:56;;;;;;;38.08;22.35;;;1.60;99.90;;;;;;2035065;29;20043;-67
2023/01/20 04:24:07;;;;;;;36.63;22.15;;;1.50;99.90;;;;;;2037213;29;20028;-67
2023/01/20 04:25:14;;;;;;;34.60;21.67;;;1.60;99.90;;;;;;2036923;29;20039;-67
2023/01/20 04:26:15;;;;;;;36.13;22.25;;;1.60;99.90;;;;;;2030516;29;20562;-67
2023/01/20 04:27:15;;;;;;;37.88;22.70;;;1.50;99.90;;;;;;2044136;29;20051;-67
2023/01/20 04:28:16;;;;;;;38.20;22.38;;;1.50;99.90;;;;;;2051824;28;20035;-67
2023/01/20 04:29:16;;;;;;;41.58;24.27;;;1.50;99.90;;;;;;2046133;28;20038;-67
2023/01/20 04:30:18;;;;;;;38.83;23.52;;;1.50;99.90;;;;;;2045725;29;20046;-67
2023/01/20 04:31:18;;;;;;;37.03;23.13;;;1.50;99.90;;;;;;2037088;29;20035;-68
2023/01/20 04:32:19;;;;;;;35.40;22.70;;;1.50;99.90;;;;;;2031215;29;20376;-67
2023/01/20 04:33:19;;;;;;;35.17;22.27;;;1.50;99.90;;;;;;2037839;29;20456;-69
2023/01/20 04:34:20;;;;;;;35.47;21.88;;;1.50;99.90;;;;;;2049689;28;20563;-67
2023/01/20 04:35:20;;;;;;;35.30;22.50;;;1.50;99.90;;;;;;2045744;29;20027;-67
2023/01/20 04:36:21;;;;;;;35.25;22.15;;;1.50;99.90;;;;;;2045643;28;20123;-67
2023/01/20 04:37:22;;;;;;;37.50;23.63;;;1.50;99.90;;;;;;2048014;28;20034;-67
2023/01/20 04:38:22;;;;;;;36.65;22.35;;;1.50;99.90;;;;;;2053600;28;20046;-67
2023/01/20 04:39:23;;;;;;;39.50;23.00;;;1.50;99.90;;;;;;2046275;28;20040;-68
2023/01/20 04:40:23;;;;;;;36.40;22.80;;;1.50;99.90;;;;;;2051613;28;20122;-67
2023/01/20 04:41:24;;;;;;;36.60;22.80;;;1.40;99.90;;;;;;2046246;28;20039;-67
2023/01/20 04:42:24;;;;;;;37.40;23.17;;;1.40;99.90;;;;;;2044278;29;20036;-67
2023/01/20 04:43:25;;;;;;;37.35;22.95;;;1.40;99.90;;;;;;2045441;29;20074;-67
2023/01/20 04:44:25;;;;;;;37.15;23.48;;;1.40;99.90;;;;;;2045087;29;20058;-67
2023/01/20 04:45:26;;;;;;;37.92;22.90;;;1.40;99.90;;;;;;2042682;28;20585;-67
2023/01/20 04:46:26;;;;;;;38.15;23.20;;;1.40;99.90;;;;;;2045229;29;20066;-67
2023/01/20 04:47:32;;;;;;;35.65;22.45;;;1.40;99.90;;;;;;2045985;28;20039;-67
2023/01/20 04:48:33;;;;;;;40.35;24.10;;;1.40;99.90;;;;;;2046590;29;20049;-68
2023/01/20 04:49:34;;;;;;;39.00;23.67;;;1.40;99.90;;;;;;2043653;29;20038;-67
2023/01/20 04:50:40;;;;;;;36.45;22.83;;;1.40;99.90;;;;;;2030041;29;20122;-67
2023/01/20 04:51:41;;;;;;;36.90;22.85;;;1.40;99.90;;;;;;2039913;29;20047;-67
2023/01/20 04:52:42;;;;;;;38.08;23.42;;;1.40;99.90;;;;;;2047440;29;20062;-67
2023/01/20 04:53:43;;;;;;;38.20;23.42;;;1.40;99.90;;;;;;2047594;29;20035;-67
2023/01/20 04:54:43;;;;;;;38.40;23.67;;;1.40;99.90;;;;;;2047485;29;20118;-67
2023/01/20 04:55:44;;;;;;;37.45;23.63;;;1.40;99.90;;;;;;2045558;29;20258;-67
2023/01/20 04:56:47;;;;;;;38.97;23.45;;;1.40;99.90;;;;;;2047598;29;20095;-68
2023/01/20 04:57:48;;;;;;;39.05;24.60;;;1.40;99.90;;;;;;2030923;29;20028;-67
2023/01/20 04:58:48;;;;;;;41.40;24.25;;;1.40;99.90;;;;;;2031060;29;20064;-68
2023/01/20 04:59:49;;;;;;;39.42;23.33;;;1.40;99.90;;;;;;2049653;28;20458;-67
2023/01/20 05:00:50;;;;;;;40.25;23.92;;;1.40;99.90;;;;;;2047732;28;20126;-67
2023/01/20 05:01:50;;;;;;;42.58;24.50;;;1.40;99.90;;;;;;2047619;28;20092;-67
2023/01/20 05:02:51;;;;;;;40.25;23.88;;;1.40;99.90;;;;;;2047578;29;20628;-67
2023/01/20 05:03:51;;;;;;;36.58;23.02;;;1.40;99.90;;;;;;2047561;29;20035;-67
2023/01/20 05:04:52;;;;;;;37.70;23.08;;;1.40;99.90;;;;;;2047177;28;20110;-68
2023/01/20 05:05:55;;;;;;;38.22;22.88;;;1.40;99.90;;;;;;2047395;29;20043;-67
2023/01/20 05:06:56;;;;;;;42.25;23.70;;;1.40;99.90;;;;;;2039221;29;20482;-67
2023/01/20 05:07:56;;;;;;;38.35;23.38;;;1.40;99.90;;;;;;2039253;29;20051;-67
2023/01/20 05:08:57;;;;;;;38.63;23.02;;;1.40;99.90;;;;;;2047380;29;20031;-67
2023/01/20 05:09:57;;;;;;;38.92;22.88;;;1.40;99.90;;;;;;2045603;29;20038;-68
2023/01/20 05:10:58;;;;;;;37.75;22.77;;;1.40;99.90;;;;;;2047641;29;20059;-67
2023/01/20 05:11:58;;;;;;;38.17;23.50;;;1.40;99.90;;;;;;2047512;29;20479;-67
2023/01/20 05:12:59;;;;;;;40.08;23.40;;;1.40;99.90;;;;;;2047692;29;20022;-67
2023/01/20 05:14:00;;;;;;;40.00;24.02;;;1.40;99.90;;;;;;2047194;29;20034;-67
2023/01/20 05:15:01;;;;;;;38.85;24.10;;;1.40;99.90;;;;;;2045617;28;20035;-67
2023/01/20 05:16:01;;;;;;;39.83;23.83;;;1.40;99.90;;;;;;2055508;28;20327;-67
2023/01/20 05:17:02;;;;;;;38.28;23.85;;;1.40;99.90;;;;;;2039579;29;20035;-74
2023/01/20 05:18:02;;;;;;;40.70;23.75;;;1.40;99.90;;;;;;2039136;29;20103;-79
2023/01/20 05:19:03;;;;;;;38.65;23.35;;;1.40;99.90;;;;;;2047566;29;20494;-69
2023/01/20 05:20:04;;;;;;;43.55;25.08;;;1.40;99.90;;;;;;2042774;29;20559;-69
2023/01/20 05:21:06;;;;;;;41.40;24.30;;;1.40;99.90;;;;;;2045265;29;20907;-71
2023/01/20 05:22:07;;;;;;;40.55;24.48;;;1.40;99.90;;;;;;2047661;29;20106;-70
2023/01/20 05:23:07;;;;;;;38.10;23.45;;;1.40;99.90;;;;;;2047564;29;20043;-68
2023/01/20 05:24:08;;;;;;;42.38;24.85;;;1.40;99.90;;;;;;2043167;29;20055;-69
2023/01/20 05:25:09;;;;;;;43.45;24.52;;;1.40;99.90;;;;;;2040872;28;20063;-69
2023/01/20 05:26:10;;;;;;;40.22;24.38;;;1.50;99.90;;;;;;2047508;29;20035;-70
2023/01/20 05:27:10;;;;;;;39.38;24.50;;;1.50;99.90;;;;;;2047483;28;20034;-68
2023/01/20 05:28:11;;;;;;;42.00;25.02;;;1.50;99.90;;;;;;2047166;28;20452;-69
2023/01/20 05:29:11;;;;;;;41.47;25.13;;;1.50;99.90;;;;;;2045773;29;20469;-69
2023/01/20 05:30:12;;;;;;;41.60;24.38;;;1.50;99.90;;;;;;2047416;28;20039;-69